createdAt,value
2022-11-07T00:00:47.484Z,34.67
2022-11-07T00:03:16.855Z,30.73
2022-11-07T00:05:43.669Z,34.22
2022-11-07T00:08:10.202Z,33.70
2022-11-07T00:10:59.485Z,30.58
2022-11-07T00:13:27.433Z,33.22
2022-11-07T00:15:57.984Z,31.17
2022-11-07T00:18:24.560Z,33.67
2022-11-07T00:24:19.544Z,33.90
2022-11-07T00:26:47.110Z,34.08
2022-11-07T00:29:19.144Z,30.45
2022-11-07T00:31:46.416Z,34.33
2022-11-07T00:34:13.209Z,33.17
2022-11-07T00:36:39.929Z,29.33
2022-11-07T00:39:25.358Z,28.77
2022-11-07T00:41:51.944Z,27.70
2022-11-07T00:44:18.602Z,33.08
2022-11-07T00:46:45.219Z,26.50
2022-11-07T00:53:04.781Z,29.10
2022-11-07T00:56:00.191Z,27.77
2022-11-07T00:58:26.779Z,25.67
2022-11-07T01:00:53.339Z,25.50
2022-11-07T01:03:38.750Z,28.90
2022-11-07T01:06:05.598Z,29.67
2022-11-07T01:24:52.578Z,23.85
2022-11-07T01:27:19.159Z,29.40
2022-11-07T01:29:45.757Z,26.90
2022-11-07T01:32:12.352Z,32.40
2022-11-07T01:34:38.911Z,28.90
2022-11-07T01:37:05.471Z,26.20
2022-11-07T01:39:47.394Z,28.10
2022-11-07T01:42:13.931Z,28.02
2022-11-07T01:44:40.472Z,26.95
2022-11-07T01:47:07.952Z,27.35
2022-11-07T01:53:02.419Z,28.45
2022-11-07T01:55:35.494Z,27.67
2022-11-07T01:58:05.704Z,28.40
2022-11-07T02:00:34.060Z,26.67
2022-11-07T02:03:21.093Z,25.92
2022-11-07T02:06:11.471Z,28.80
2022-11-07T02:09:06.628Z,28.73
2022-11-07T02:11:35.127Z,26.60
2022-11-07T02:14:01.776Z,24.83
2022-11-07T02:16:29.047Z,25.17
2022-11-07T02:22:25.387Z,24.52
2022-11-07T02:24:57.055Z,23.62
2022-11-07T02:27:25.894Z,24.77
2022-11-07T02:30:00.658Z,23.77
2022-11-07T02:32:27.447Z,22.23
2022-11-07T02:35:02.117Z,26.12
2022-11-07T02:37:40.600Z,26.55
2022-11-07T02:40:10.004Z,25.05
2022-11-07T02:42:45.006Z,25.73
2022-11-07T02:45:27.979Z,26.75
2022-11-07T02:48:19.355Z,27.98
2022-11-07T02:50:59.327Z,24.23
2022-11-07T02:53:42.153Z,24.33
2022-11-07T02:56:09.062Z,25.30
2022-11-07T02:58:36.316Z,24.05
2022-11-07T03:01:07.093Z,25.33
2022-11-07T03:03:42.278Z,25.10
2022-11-07T03:09:04.602Z,24.63
2022-11-07T03:17:29.419Z,28.65
2022-11-07T03:19:55.950Z,26.60
2022-11-07T03:23:06.210Z,26.52
2022-11-07T03:26:10.374Z,27.70
2022-11-07T03:37:17.484Z,31.90
2022-11-07T03:39:44.077Z,31.67
2022-11-07T03:47:21.089Z,30.90
2022-11-07T03:49:47.651Z,26.83
2022-11-07T03:53:03.758Z,30.90
2022-11-07T03:56:05.752Z,28.23
2022-11-07T03:58:32.309Z,31.27
2022-11-07T04:00:58.872Z,29.52
2022-11-07T04:03:25.513Z,31.12
2022-11-07T04:41:21.800Z,37.33
2022-11-07T04:43:48.898Z,42.42
2022-11-07T04:46:16.697Z,38.50
2022-11-07T04:51:24.615Z,40.00
2022-11-07T04:53:51.348Z,37.53
2022-11-07T04:56:39.889Z,39.60
2022-11-07T04:59:06.764Z,37.75
2022-11-07T05:01:33.407Z,44.72
2022-11-07T05:04:00.154Z,37.08
2022-11-07T05:13:24.495Z,39.80
2022-11-07T05:15:52.387Z,38.35
2022-11-07T05:18:21.189Z,39.45
2022-11-07T05:20:47.759Z,45.65
2022-11-07T05:23:20.659Z,41.55
2022-11-07T05:26:11.976Z,46.08
2022-11-07T05:28:39.795Z,42.15
2022-11-07T05:31:18.175Z,51.80
2022-11-07T05:45:00.623Z,42.25
2022-11-07T05:50:15.758Z,44.58
2022-11-07T05:52:42.684Z,43.03
2022-11-07T06:03:01.979Z,44.90
2022-11-07T06:05:29.289Z,43.78
2022-11-07T06:07:56.060Z,44.15
2022-11-07T06:10:23.061Z,41.58
2022-11-07T06:13:00.606Z,40.67
2022-11-07T06:15:29.206Z,41.28
2022-11-07T06:18:00.292Z,43.85
2022-11-07T06:20:27.529Z,42.70
2022-11-07T06:22:58.518Z,43.63
2022-11-07T06:31:06.720Z,43.03
2022-11-07T06:33:33.464Z,39.92
2022-11-07T06:36:11.453Z,40.33
2022-11-07T06:38:39.099Z,37.97
2022-11-07T06:41:12.528Z,37.75
2022-11-07T06:43:39.452Z,41.08
2022-11-07T06:46:10.547Z,38.70
2022-11-07T06:48:37.948Z,39.80
2022-11-07T06:51:06.677Z,37.60
2022-11-07T06:53:44.015Z,38.15
2022-11-07T06:56:19.437Z,44.42
2022-11-07T06:58:48.956Z,44.40
2022-11-07T07:01:16.855Z,39.35
2022-11-07T07:03:45.115Z,40.20
2022-11-07T07:06:16.766Z,36.88
2022-11-07T07:08:44.489Z,41.25
2022-11-07T07:11:13.956Z,41.20
2022-11-07T07:18:51.065Z,42.22
2022-11-07T07:21:17.659Z,40.42
2022-11-07T07:23:44.234Z,44.75
2022-11-07T07:26:15.560Z,42.20
2022-11-07T07:28:46.889Z,39.78
2022-11-07T07:31:13.357Z,40.50
2022-11-07T07:33:44.938Z,38.90
2022-11-07T07:36:16.477Z,41.75
2022-11-07T07:38:46.028Z,42.22
2022-11-07T07:41:27.847Z,39.63
2022-11-07T07:43:54.514Z,36.28
2022-11-07T07:46:23.554Z,41.42
2022-11-07T07:48:50.114Z,42.62
2022-11-07T07:51:38.945Z,33.22
2022-11-07T07:54:05.542Z,34.00
2022-11-07T07:56:32.521Z,34.50
2022-11-07T07:58:59.990Z,35.95
2022-11-07T08:01:26.624Z,34.88
2022-11-07T08:04:02.366Z,31.70
2022-11-07T08:10:44.188Z,30.62
2022-11-07T08:13:10.857Z,37.67
2022-11-07T08:15:37.684Z,30.37
2022-11-07T08:18:04.926Z,30.98
2022-11-07T08:20:32.062Z,30.00
2022-11-07T08:23:16.422Z,31.10
2022-11-07T08:25:51.422Z,26.12
2022-11-07T08:28:18.836Z,30.88
2022-11-07T08:39:18.667Z,30.73
2022-11-07T08:44:26.742Z,27.37
2022-11-07T09:08:06.727Z,25.02
2022-11-07T09:10:34.903Z,31.98
2022-11-07T09:13:01.531Z,28.50
2022-11-07T09:47:22.591Z,25.10
2022-11-07T09:50:14.961Z,21.83
2022-11-07T11:04:38.428Z,17.62
2022-11-07T11:07:11.550Z,16.58
2022-11-07T11:12:14.600Z,15.52
2022-11-07T11:17:34.939Z,19.55
2022-11-07T11:20:01.962Z,16.20
2022-11-07T11:22:29.281Z,15.57
2022-11-07T11:25:11.107Z,13.40
2022-11-07T11:27:51.390Z,16.65
2022-11-07T11:33:14.443Z,14.90
2022-11-07T11:35:56.058Z,22.35
2022-11-07T11:38:33.183Z,19.35
2022-11-07T11:41:10.698Z,16.90
2022-11-07T11:43:59.840Z,16.42
2022-11-07T11:46:45.583Z,17.58
2022-11-07T11:51:56.009Z,14.70
2022-11-07T11:54:22.700Z,16.92
2022-11-07T11:57:23.710Z,18.35
2022-11-07T11:59:50.268Z,17.20
2022-11-07T12:02:22.482Z,16.83
2022-11-07T12:05:19.493Z,18.73
2022-11-07T12:07:57.782Z,17.60
2022-11-07T12:10:52.295Z,17.75
2022-11-07T12:13:28.265Z,19.83
2022-11-07T12:16:07.172Z,23.75
2022-11-07T12:19:15.943Z,21.90
2022-11-07T12:21:48.757Z,23.85
2022-11-07T12:27:03.241Z,26.40
2022-11-07T12:29:47.304Z,22.17
2022-11-07T12:32:19.791Z,38.75
2022-11-07T12:35:07.581Z,15.02
2022-11-07T12:37:58.216Z,15.65
2022-11-07T12:40:27.538Z,14.23
2022-11-07T12:46:13.811Z,11.95
2022-11-07T12:49:01.785Z,10.30
2022-11-07T12:51:45.599Z,15.25
2022-11-07T12:54:21.047Z,11.65
2022-11-07T12:56:49.494Z,9.25
2022-11-07T12:59:23.902Z,9.90
2022-11-07T13:02:15.978Z,7.47
2022-11-07T13:05:18.528Z,7.40
2022-11-07T13:08:00.727Z,5.82
2022-11-07T13:29:02.383Z,7.93
2022-11-07T13:31:40.497Z,8.93
2022-11-07T13:34:18.876Z,10.93
2022-11-07T13:36:50.767Z,7.47
2022-11-07T13:39:18.550Z,6.82
2022-11-07T13:41:46.388Z,7.75
2022-11-07T13:44:22.748Z,9.35
2022-11-07T13:47:17.716Z,6.53
2022-11-07T13:49:47.766Z,5.30
2022-11-07T13:52:26.823Z,4.65
2022-11-07T13:55:21.972Z,5.90
2022-11-07T13:57:54.807Z,6.10
2022-11-07T14:00:22.006Z,6.55
2022-11-07T14:02:54.491Z,5.57
2022-11-07T14:05:24.014Z,5.62
2022-11-07T14:08:02.437Z,7.47
2022-11-07T14:10:47.158Z,5.72
2022-11-07T14:13:25.218Z,6.12
2022-11-07T14:16:25.139Z,5.75
2022-11-07T14:18:57.043Z,7.62
2022-11-07T14:21:27.596Z,8.00
2022-11-07T14:23:54.542Z,6.62
2022-11-07T14:26:30.663Z,7.10
2022-11-07T14:29:00.654Z,8.93
2022-11-07T14:31:30.375Z,12.50
2022-11-07T14:34:00.406Z,10.25
2022-11-07T14:36:28.362Z,8.10
2022-11-07T14:39:11.294Z,8.77
2022-11-07T14:41:43.203Z,8.57
2022-11-07T14:44:17.354Z,8.32
2022-11-07T14:46:44.686Z,6.20
2022-11-07T14:49:39.593Z,5.80
2022-11-07T14:52:08.984Z,6.50
2022-11-07T14:54:41.940Z,5.12
2022-11-07T14:57:11.585Z,5.47
2022-11-07T14:59:39.057Z,7.82
2022-11-07T15:02:11.781Z,10.93
2022-11-07T15:04:42.411Z,18.12
2022-11-07T15:07:20.386Z,13.50
2022-11-07T15:09:46.943Z,11.12
2022-11-07T15:12:25.943Z,11.15
2022-11-07T15:15:17.231Z,9.45
2022-11-07T15:17:48.819Z,9.05
2022-11-07T15:20:37.047Z,10.68
2022-11-07T15:23:12.635Z,12.48
2022-11-07T15:25:41.811Z,14.93
2022-11-07T15:28:43.289Z,19.12
2022-11-07T15:31:26.078Z,20.17
2022-11-07T15:33:53.707Z,18.35
2022-11-07T15:36:20.968Z,17.20
2022-11-07T15:38:49.188Z,29.58
2022-11-07T15:41:16.154Z,43.55
2022-11-07T15:43:42.679Z,34.50
2022-11-07T15:46:31.042Z,20.17
2022-11-07T15:48:57.785Z,15.57
2022-11-07T15:51:24.495Z,14.63
2022-11-07T15:53:51.090Z,16.12
2022-11-07T15:56:22.109Z,19.25
2022-11-07T15:58:49.606Z,24.75
2022-11-07T16:01:16.204Z,42.78
2022-11-07T16:03:45.988Z,52.75
2022-11-07T16:06:45.967Z,39.58
2022-11-07T16:09:20.539Z,32.28
2022-11-07T16:11:47.643Z,29.05
2022-11-07T16:17:05.405Z,25.50
2022-11-07T16:19:32.015Z,33.33
2022-11-07T16:21:58.526Z,35.78
2022-11-07T16:24:25.084Z,37.80
2022-11-07T16:26:51.994Z,32.88
2022-11-07T16:29:18.575Z,32.95
2022-11-07T16:31:45.117Z,32.65
2022-11-07T16:34:15.447Z,37.88
2022-11-07T16:36:42.186Z,36.65
2022-11-07T16:39:19.420Z,42.58
2022-11-07T16:41:46.155Z,44.20
2022-11-07T16:44:12.732Z,47.62
2022-11-07T16:46:41.312Z,45.30
2022-11-07T16:49:25.681Z,48.55
2022-11-07T16:51:52.244Z,55.58
2022-11-07T16:54:18.803Z,63.03
2022-11-07T16:56:47.318Z,59.38
2022-11-07T16:59:19.380Z,61.53
2022-11-07T17:01:46.236Z,44.30
2022-11-07T17:04:13.044Z,40.47
2022-11-07T17:06:46.283Z,33.17
2022-11-07T17:09:17.236Z,31.15
2022-11-07T17:11:45.125Z,31.23
2022-11-07T17:14:12.122Z,26.65
2022-11-07T17:16:42.113Z,28.17
2022-11-07T17:19:12.251Z,26.83
2022-11-07T17:21:43.824Z,25.85
2022-11-07T17:24:10.595Z,23.40
2022-11-07T17:26:38.861Z,23.95
2022-11-07T17:29:07.326Z,20.42
2022-11-07T17:31:34.126Z,21.62
2022-11-07T17:34:01.010Z,23.70
2022-11-07T17:36:36.687Z,26.75
2022-11-07T17:39:11.482Z,31.73
2022-11-07T17:41:40.676Z,29.75
2022-11-07T17:44:07.767Z,32.40
2022-11-07T17:46:35.961Z,33.88
2022-11-07T17:49:07.112Z,32.20
2022-11-07T17:51:36.017Z,34.90
2022-11-07T17:54:03.132Z,30.42
2022-11-07T17:56:31.011Z,32.42
2022-11-07T17:59:00.046Z,30.40
2022-11-07T18:01:30.683Z,30.92
2022-11-07T18:03:58.059Z,31.55
2022-11-07T18:06:26.175Z,33.08
2022-11-07T18:08:55.509Z,34.10
2022-11-07T18:11:25.900Z,34.65
2022-11-07T18:13:56.094Z,28.58
2022-11-07T18:16:27.852Z,28.62
2022-11-07T18:18:55.255Z,32.80
2022-11-07T18:21:21.817Z,30.50
2022-11-07T18:23:48.470Z,33.65
2022-11-07T18:26:20.837Z,35.28
2022-11-07T18:28:51.522Z,36.92
2022-11-07T18:31:20.958Z,42.03
2022-11-07T18:33:48.345Z,44.97
2022-11-07T18:36:18.040Z,48.03
2022-11-07T18:38:45.109Z,46.97
2022-11-07T18:41:16.024Z,40.75
2022-11-07T18:43:42.621Z,42.92
2022-11-07T18:46:14.510Z,40.05
2022-11-07T18:48:42.219Z,44.08
2022-11-07T18:51:16.387Z,42.58
2022-11-07T18:53:44.084Z,44.63
2022-11-07T18:56:12.691Z,41.25
2022-11-07T18:58:41.341Z,49.65
2022-11-07T19:01:13.916Z,48.83
2022-11-07T19:03:42.057Z,50.10
2022-11-07T19:06:11.582Z,52.30
2022-11-07T19:08:40.443Z,52.33
2022-11-07T19:11:11.136Z,47.28
2022-11-07T19:13:39.814Z,43.38
2022-11-07T19:16:08.535Z,36.53
2022-11-07T19:18:35.546Z,37.47
2022-11-07T19:21:03.883Z,32.03
2022-11-07T19:23:30.935Z,25.30
2022-11-07T19:25:57.888Z,29.45
2022-11-07T19:28:24.448Z,25.88
2022-11-07T19:30:51.025Z,27.33
2022-11-07T19:33:17.989Z,28.05
2022-11-07T19:35:44.750Z,26.42
2022-11-07T19:38:12.943Z,29.12
2022-11-07T19:40:41.269Z,29.17
2022-11-07T19:43:09.470Z,33.45
2022-11-07T19:45:40.962Z,29.77
2022-11-07T19:48:07.710Z,31.00
2022-11-07T19:50:34.248Z,29.05
2022-11-07T19:53:00.747Z,30.75
2022-11-07T19:55:27.447Z,28.27
2022-11-07T19:57:53.996Z,28.08
2022-11-07T20:00:20.558Z,31.62
2022-11-07T20:02:47.906Z,26.83
2022-11-07T20:05:23.936Z,29.42
2022-11-07T20:07:58.062Z,29.85
2022-11-07T20:10:27.818Z,27.48
2022-11-07T20:12:55.664Z,28.08
2022-11-07T20:15:22.461Z,26.87
2022-11-07T20:17:49.026Z,33.47
2022-11-07T20:20:15.960Z,30.42
2022-11-07T20:22:47.531Z,27.10
2022-11-07T20:28:04.566Z,25.90
2022-11-07T20:30:31.121Z,25.33
2022-11-07T20:32:58.191Z,28.77
2022-11-07T20:35:24.799Z,28.40
2022-11-07T20:37:51.363Z,32.95
2022-11-07T20:41:20.281Z,29.73
2022-11-07T20:46:49.380Z,24.98
2022-11-07T20:49:38.919Z,26.12
2022-11-07T20:57:53.390Z,21.92
2022-11-07T21:00:21.534Z,22.52
2022-11-07T21:06:12.500Z,24.20
2022-11-07T21:08:48.720Z,20.98
2022-11-07T21:11:24.122Z,21.83
2022-11-07T21:14:12.642Z,20.12
2022-11-07T21:19:21.084Z,21.73
2022-11-07T21:22:16.254Z,17.75
2022-11-07T21:30:40.787Z,20.52
2022-11-07T21:38:46.646Z,26.73
2022-11-07T21:41:26.720Z,22.65
2022-11-07T21:46:34.891Z,21.70
2022-11-07T21:49:01.909Z,18.42
2022-11-07T21:51:36.485Z,22.42
2022-11-07T21:54:44.637Z,19.62
2022-11-07T21:58:05.597Z,21.37
2022-11-07T22:00:36.304Z,21.17
2022-11-07T22:03:04.187Z,23.52
2022-11-07T22:05:30.925Z,25.10
2022-11-07T22:08:02.125Z,29.12
2022-11-07T22:10:28.646Z,27.52
2022-11-07T22:13:19.663Z,24.67
2022-11-07T22:16:09.175Z,26.27
2022-11-07T22:18:35.820Z,23.35
2022-11-07T22:21:05.242Z,25.20
2022-11-07T22:24:18.656Z,24.80
2022-11-07T22:27:31.893Z,23.65
2022-11-07T22:29:58.445Z,24.77
2022-11-07T22:32:24.962Z,22.62
2022-11-07T22:34:51.487Z,24.33
2022-11-07T22:37:18.026Z,27.37
2022-11-07T22:39:44.892Z,22.58
2022-11-07T22:42:11.509Z,24.60
2022-11-07T22:44:38.047Z,23.20
2022-11-07T22:47:04.624Z,22.25
2022-11-07T22:49:31.183Z,21.60
2022-11-07T22:51:57.989Z,22.52
2022-11-07T22:54:24.554Z,21.65
2022-11-07T22:56:51.080Z,22.40
2022-11-07T22:59:17.607Z,21.52
2022-11-07T23:01:44.396Z,23.73
2022-11-07T23:04:15.027Z,22.98
2022-11-07T23:06:42.307Z,23.30
2022-11-07T23:09:11.259Z,26.42
2022-11-07T23:11:45.827Z,27.70
2022-11-07T23:16:56.105Z,26.00
2022-11-07T23:19:25.005Z,21.58
2022-11-07T23:21:52.884Z,22.45
2022-11-07T23:24:20.676Z,21.00
2022-11-07T23:26:47.923Z,24.55
2022-11-07T23:29:38.839Z,24.85
2022-11-07T23:48:58.541Z,21.50
2022-11-07T23:51:25.662Z,23.05
2022-11-07T23:54:10.447Z,20.80
2022-11-07T23:56:37.270Z,19.15
2022-11-07T23:59:22.838Z,21.35
